sensor_id;sensor_type;location;lat;lon;timestamp;P1;durP1;ratioP1;P2;durP2;ratioP2
42704;SDS011;28342;42.594;23.414;2022-11-20T00:01:06;10.50;;;5.10;;
42704;SDS011;28342;42.594;23.414;2022-11-20T00:03:33;3.30;;;1.90;;
42704;SDS011;28342;42.594;23.414;2022-11-20T00:06:02;5.57;;;1.67;;
42704;SDS011;28342;42.594;23.414;2022-11-20T00:11:07;6.43;;;1.85;;
42704;SDS011;28342;42.594;23.414;2022-11-20T00:13:35;2.25;;;1.05;;
42704;SDS011;28342;42.594;23.414;2022-11-20T00:16:01;4.93;;;1.08;;
42704;SDS011;28342;42.594;23.414;2022-11-20T00:18:33;4.28;;;1.20;;
42704;SDS011;28342;42.594;23.414;2022-11-20T00:21:01;2.20;;;0.82;;
42704;SDS011;28342;42.594;23.414;2022-11-20T00:23:29;3.03;;;0.85;;
42704;SDS011;28342;42.594;23.414;2022-11-20T00:25:56;3.38;;;1.15;;
42704;SDS011;28342;42.594;23.414;2022-11-20T00:28:27;4.65;;;1.20;;
42704;SDS011;28342;42.594;23.414;2022-11-20T00:30:59;2.25;;;0.82;;
42704;SDS011;28342;42.594;23.414;2022-11-20T00:33:46;4.50;;;1.13;;
42704;SDS011;28342;42.594;23.414;2022-11-20T00:36:14;5.05;;;1.40;;
42704;SDS011;28342;42.594;23.414;2022-11-20T00:38:43;1.88;;;1.13;;
42704;SDS011;28342;42.594;23.414;2022-11-20T00:41:12;2.13;;;1.25;;
42704;SDS011;28342;42.594;23.414;2022-11-20T00:43:40;3.38;;;0.90;;
42704;SDS011;28342;42.594;23.414;2022-11-20T00:46:06;4.13;;;1.08;;
42704;SDS011;28342;42.594;23.414;2022-11-20T00:48:39;2.92;;;1.25;;
42704;SDS011;28342;42.594;23.414;2022-11-20T00:51:09;3.08;;;0.95;;
42704;SDS011;28342;42.594;23.414;2022-11-20T00:53:40;1.88;;;0.95;;
42704;SDS011;28342;42.594;23.414;2022-11-20T00:56:07;2.88;;;1.23;;
42704;SDS011;28342;42.594;23.414;2022-11-20T00:58:40;2.00;;;0.90;;
42704;SDS011;28342;42.594;23.414;2022-11-20T01:01:11;4.22;;;1.20;;
42704;SDS011;28342;42.594;23.414;2022-11-20T01:03:41;6.13;;;2.38;;
42704;SDS011;28342;42.594;23.414;2022-11-20T01:06:14;8.48;;;2.45;;
42704;SDS011;28342;42.594;23.414;2022-11-20T01:08:43;7.07;;;2.50;;
42704;SDS011;28342;42.594;23.414;2022-11-20T01:11:12;8.45;;;2.65;;
42704;SDS011;28342;42.594;23.414;2022-11-20T01:13:41;4.05;;;2.92;;
42704;SDS011;28342;42.594;23.414;2022-11-20T01:16:09;6.88;;;2.70;;
42704;SDS011;28342;42.594;23.414;2022-11-20T01:18:36;6.43;;;2.75;;
42704;SDS011;28342;42.594;23.414;2022-11-20T01:21:05;5.15;;;2.50;;
42704;SDS011;28342;42.594;23.414;2022-11-20T01:23:38;5.72;;;2.50;;
42704;SDS011;28342;42.594;23.414;2022-11-20T01:26:13;3.28;;;1.95;;
42704;SDS011;28342;42.594;23.414;2022-11-20T01:28:45;4.07;;;1.70;;
42704;SDS011;28342;42.594;23.414;2022-11-20T01:31:29;4.68;;;1.08;;
42704;SDS011;28342;42.594;23.414;2022-11-20T01:33:57;2.83;;;1.05;;
42704;SDS011;28342;42.594;23.414;2022-11-20T01:36:29;1.95;;;1.20;;
42704;SDS011;28342;42.594;23.414;2022-11-20T01:38:56;1.85;;;0.90;;
42704;SDS011;28342;42.594;23.414;2022-11-20T01:41:24;2.03;;;1.02;;
42704;SDS011;28342;42.594;23.414;2022-11-20T01:44:12;3.92;;;0.80;;
42704;SDS011;28342;42.594;23.414;2022-11-20T01:47:18;2.15;;;0.70;;
42704;SDS011;28342;42.594;23.414;2022-11-20T01:49:54;1.48;;;0.85;;
42704;SDS011;28342;42.594;23.414;2022-11-20T01:52:26;4.72;;;0.80;;
42704;SDS011;28342;42.594;23.414;2022-11-20T01:55:06;3.80;;;0.90;;
42704;SDS011;28342;42.594;23.414;2022-11-20T02:00:08;2.95;;;1.08;;
42704;SDS011;28342;42.594;23.414;2022-11-20T02:02:36;1.17;;;0.70;;
42704;SDS011;28342;42.594;23.414;2022-11-20T02:05:22;4.50;;;1.20;;
42704;SDS011;28342;42.594;23.414;2022-11-20T02:07:57;2.80;;;0.70;;
42704;SDS011;28342;42.594;23.414;2022-11-20T02:10:26;3.78;;;1.00;;
42704;SDS011;28342;42.594;23.414;2022-11-20T02:12:53;2.88;;;1.52;;
42704;SDS011;28342;42.594;23.414;2022-11-20T02:15:39;4.10;;;1.73;;
42704;SDS011;28342;42.594;23.414;2022-11-20T02:18:05;1.52;;;1.20;;
42704;SDS011;28342;42.594;23.414;2022-11-20T02:20:32;3.70;;;1.60;;
42704;SDS011;28342;42.594;23.414;2022-11-20T02:25:42;2.42;;;1.60;;
42704;SDS011;28342;42.594;23.414;2022-11-20T02:28:12;6.18;;;1.92;;
42704;SDS011;28342;42.594;23.414;2022-11-20T02:30:39;2.25;;;0.93;;
42704;SDS011;28342;42.594;23.414;2022-11-20T02:33:06;4.28;;;1.63;;
42704;SDS011;28342;42.594;23.414;2022-11-20T02:38:01;3.53;;;0.90;;
42704;SDS011;28342;42.594;23.414;2022-11-20T02:40:30;2.22;;;0.82;;
42704;SDS011;28342;42.594;23.414;2022-11-20T02:43:08;7.53;;;0.90;;
42704;SDS011;28342;42.594;23.414;2022-11-20T02:45:39;3.40;;;0.70;;
42704;SDS011;28342;42.594;23.414;2022-11-20T02:48:08;4.80;;;1.15;;
42704;SDS011;28342;42.594;23.414;2022-11-20T02:50:38;1.17;;;0.70;;
42704;SDS011;28342;42.594;23.414;2022-11-20T02:53:04;2.47;;;1.08;;
42704;SDS011;28342;42.594;23.414;2022-11-20T02:55:30;5.10;;;1.10;;
42704;SDS011;28342;42.594;23.414;2022-11-20T02:57:56;3.60;;;1.05;;
42704;SDS011;28342;42.594;23.414;2022-11-20T03:00:22;0.82;;;0.50;;
42704;SDS011;28342;42.594;23.414;2022-11-20T03:02:50;2.30;;;0.75;;
42704;SDS011;28342;42.594;23.414;2022-11-20T03:05:15;5.82;;;1.08;;
42704;SDS011;28342;42.594;23.414;2022-11-20T03:07:41;5.95;;;0.88;;
42704;SDS011;28342;42.594;23.414;2022-11-20T03:10:10;2.35;;;0.90;;
42704;SDS011;28342;42.594;23.414;2022-11-20T03:12:39;2.13;;;1.00;;
42704;SDS011;28342;42.594;23.414;2022-11-20T03:15:06;2.25;;;0.77;;
42704;SDS011;28342;42.594;23.414;2022-11-20T03:17:36;4.18;;;1.08;;
42704;SDS011;28342;42.594;23.414;2022-11-20T03:20:04;3.03;;;1.00;;
42704;SDS011;28342;42.594;23.414;2022-11-20T03:25:03;2.60;;;0.80;;
42704;SDS011;28342;42.594;23.414;2022-11-20T03:27:33;2.28;;;0.80;;
42704;SDS011;28342;42.594;23.414;2022-11-20T03:29:59;1.98;;;0.93;;
42704;SDS011;28342;42.594;23.414;2022-11-20T03:32:25;4.88;;;1.23;;
42704;SDS011;28342;42.594;23.414;2022-11-20T03:34:52;4.53;;;0.98;;
42704;SDS011;28342;42.594;23.414;2022-11-20T03:37:22;3.88;;;0.75;;
42704;SDS011;28342;42.594;23.414;2022-11-20T03:39:48;9.13;;;1.17;;
42704;SDS011;28342;42.594;23.414;2022-11-20T03:42:13;5.40;;;0.90;;
42704;SDS011;28342;42.594;23.414;2022-11-20T03:44:57;2.45;;;1.02;;
42704;SDS011;28342;42.594;23.414;2022-11-20T03:47:26;2.65;;;1.05;;
42704;SDS011;28342;42.594;23.414;2022-11-20T03:49:53;4.90;;;0.98;;
42704;SDS011;28342;42.594;23.414;2022-11-20T03:52:23;2.00;;;0.82;;
42704;SDS011;28342;42.594;23.414;2022-11-20T03:54:50;2.60;;;0.82;;
42704;SDS011;28342;42.594;23.414;2022-11-20T03:57:16;2.38;;;0.90;;
42704;SDS011;28342;42.594;23.414;2022-11-20T03:59:44;3.70;;;1.10;;
42704;SDS011;28342;42.594;23.414;2022-11-20T04:02:10;3.78;;;0.98;;
42704;SDS011;28342;42.594;23.414;2022-11-20T04:04:39;1.83;;;0.70;;
42704;SDS011;28342;42.594;23.414;2022-11-20T04:07:07;3.90;;;1.00;;
42704;SDS011;28342;42.594;23.414;2022-11-20T04:09:34;5.05;;;1.20;;
42704;SDS011;28342;42.594;23.414;2022-11-20T04:12:02;2.30;;;0.80;;
42704;SDS011;28342;42.594;23.414;2022-11-20T04:14:32;4.60;;;1.15;;
42704;SDS011;28342;42.594;23.414;2022-11-20T04:17:13;5.13;;;1.30;;
42704;SDS011;28342;42.594;23.414;2022-11-20T04:23:04;1.73;;;1.10;;
42704;SDS011;28342;42.594;23.414;2022-11-20T04:26:20;5.95;;;1.25;;
42704;SDS011;28342;42.594;23.414;2022-11-20T04:29:53;4.65;;;1.10;;
42704;SDS011;28342;42.594;23.414;2022-11-20T04:33:09;5.10;;;1.10;;
42704;SDS011;28342;42.594;23.414;2022-11-20T04:35:41;2.58;;;0.75;;
42704;SDS011;28342;42.594;23.414;2022-11-20T04:38:41;7.85;;;0.90;;
42704;SDS011;28342;42.594;23.414;2022-11-20T04:45:19;5.20;;;0.90;;
42704;SDS011;28342;42.594;23.414;2022-11-20T04:48:58;1.52;;;1.20;;
42704;SDS011;28342;42.594;23.414;2022-11-20T04:54:48;4.13;;;1.27;;
42704;SDS011;28342;42.594;23.414;2022-11-20T05:00:28;4.50;;;1.10;;
42704;SDS011;28342;42.594;23.414;2022-11-20T05:03:33;1.85;;;0.90;;
42704;SDS011;28342;42.594;23.414;2022-11-20T05:06:05;9.30;;;1.33;;
42704;SDS011;28342;42.594;23.414;2022-11-20T05:09:30;3.60;;;1.40;;
42704;SDS011;28342;42.594;23.414;2022-11-20T05:11:59;6.13;;;1.25;;
42704;SDS011;28342;42.594;23.414;2022-11-20T05:14:50;3.63;;;1.67;;
42704;SDS011;28342;42.594;23.414;2022-11-20T05:17:21;5.57;;;1.30;;
42704;SDS011;28342;42.594;23.414;2022-11-20T05:19:47;3.78;;;1.45;;
42704;SDS011;28342;42.594;23.414;2022-11-20T05:22:18;5.22;;;1.60;;
42704;SDS011;28342;42.594;23.414;2022-11-20T05:25:05;6.22;;;1.38;;
42704;SDS011;28342;42.594;23.414;2022-11-20T05:27:34;6.53;;;1.75;;
42704;SDS011;28342;42.594;23.414;2022-11-20T05:30:20;5.70;;;1.77;;
42704;SDS011;28342;42.594;23.414;2022-11-20T05:33:12;5.47;;;2.17;;
42704;SDS011;28342;42.594;23.414;2022-11-20T05:36:08;2.72;;;1.58;;
42704;SDS011;28342;42.594;23.414;2022-11-20T05:38:51;4.70;;;1.40;;
42704;SDS011;28342;42.594;23.414;2022-11-20T05:41:18;2.97;;;1.63;;
42704;SDS011;28342;42.594;23.414;2022-11-20T05:43:47;6.05;;;1.77;;
42704;SDS011;28342;42.594;23.414;2022-11-20T05:46:16;8.45;;;2.15;;
42704;SDS011;28342;42.594;23.414;2022-11-20T05:48:44;7.32;;;2.38;;
42704;SDS011;28342;42.594;23.414;2022-11-20T05:51:18;5.40;;;1.55;;
42704;SDS011;28342;42.594;23.414;2022-11-20T05:53:58;4.65;;;1.60;;
42704;SDS011;28342;42.594;23.414;2022-11-20T05:56:25;4.82;;;2.30;;
42704;SDS011;28342;42.594;23.414;2022-11-20T05:58:55;8.65;;;2.70;;
42704;SDS011;28342;42.594;23.414;2022-11-20T06:01:33;6.00;;;1.90;;
42704;SDS011;28342;42.594;23.414;2022-11-20T06:04:13;7.00;;;2.10;;
42704;SDS011;28342;42.594;23.414;2022-11-20T06:06:41;5.75;;;2.05;;
42704;SDS011;28342;42.594;23.414;2022-11-20T06:09:11;6.63;;;1.40;;
42704;SDS011;28342;42.594;23.414;2022-11-20T06:11:46;5.63;;;2.05;;
42704;SDS011;28342;42.594;23.414;2022-11-20T06:14:18;4.68;;;1.40;;
42704;SDS011;28342;42.594;23.414;2022-11-20T06:16:47;8.05;;;2.67;;
42704;SDS011;28342;42.594;23.414;2022-11-20T06:19:24;5.18;;;1.48;;
42704;SDS011;28342;42.594;23.414;2022-11-20T06:21:49;6.65;;;1.70;;
42704;SDS011;28342;42.594;23.414;2022-11-20T06:24:17;2.60;;;1.33;;
42704;SDS011;28342;42.594;23.414;2022-11-20T06:26:44;5.68;;;1.40;;
42704;SDS011;28342;42.594;23.414;2022-11-20T06:29:11;4.28;;;1.63;;
42704;SDS011;28342;42.594;23.414;2022-11-20T06:31:38;6.88;;;2.40;;
42704;SDS011;28342;42.594;23.414;2022-11-20T06:34:12;8.65;;;1.50;;
42704;SDS011;28342;42.594;23.414;2022-11-20T06:36:40;6.40;;;1.90;;
42704;SDS011;28342;42.594;23.414;2022-11-20T06:39:05;5.40;;;2.53;;
42704;SDS011;28342;42.594;23.414;2022-11-20T06:41:31;7.57;;;2.10;;
42704;SDS011;28342;42.594;23.414;2022-11-20T06:43:57;3.17;;;1.48;;
42704;SDS011;28342;42.594;23.414;2022-11-20T06:46:25;8.38;;;2.47;;
42704;SDS011;28342;42.594;23.414;2022-11-20T06:49:13;62.00;;;4.88;;
42704;SDS011;28342;42.594;23.414;2022-11-20T06:51:39;7.22;;;2.38;;
42704;SDS011;28342;42.594;23.414;2022-11-20T06:54:05;5.78;;;1.58;;
42704;SDS011;28342;42.594;23.414;2022-11-20T06:56:31;4.47;;;2.10;;
42704;SDS011;28342;42.594;23.414;2022-11-20T06:58:57;4.80;;;1.90;;
42704;SDS011;28342;42.594;23.414;2022-11-20T07:02:16;4.53;;;2.03;;
42704;SDS011;28342;42.594;23.414;2022-11-20T07:04:41;5.57;;;2.15;;
42704;SDS011;28342;42.594;23.414;2022-11-20T07:07:08;4.40;;;1.75;;
42704;SDS011;28342;42.594;23.414;2022-11-20T07:09:50;7.80;;;1.90;;
42704;SDS011;28342;42.594;23.414;2022-11-20T07:16:08;5.13;;;2.65;;
42704;SDS011;28342;42.594;23.414;2022-11-20T07:21:50;10.18;;;2.90;;
42704;SDS011;28342;42.594;23.414;2022-11-20T07:24:28;5.82;;;2.00;;
42704;SDS011;28342;42.594;23.414;2022-11-20T07:27:05;4.00;;;2.30;;
42704;SDS011;28342;42.594;23.414;2022-11-20T07:34:51;3.63;;;1.40;;
42704;SDS011;28342;42.594;23.414;2022-11-20T07:37:17;4.93;;;1.45;;
42704;SDS011;28342;42.594;23.414;2022-11-20T07:39:43;5.50;;;2.13;;
42704;SDS011;28342;42.594;23.414;2022-11-20T07:42:09;5.90;;;2.20;;
42704;SDS011;28342;42.594;23.414;2022-11-20T07:44:34;7.57;;;3.13;;
42704;SDS011;28342;42.594;23.414;2022-11-20T07:47:16;6.50;;;2.00;;
42704;SDS011;28342;42.594;23.414;2022-11-20T07:52:46;8.85;;;2.22;;
42704;SDS011;28342;42.594;23.414;2022-11-20T07:55:23;4.70;;;1.70;;
42704;SDS011;28342;42.594;23.414;2022-11-20T07:57:54;7.45;;;1.85;;
42704;SDS011;28342;42.594;23.414;2022-11-20T08:00:53;8.25;;;3.22;;
42704;SDS011;28342;42.594;23.414;2022-11-20T08:06:53;5.25;;;1.50;;
42704;SDS011;28342;42.594;23.414;2022-11-20T08:09:43;7.85;;;1.70;;
42704;SDS011;28342;42.594;23.414;2022-11-20T08:12:30;6.95;;;1.48;;
42704;SDS011;28342;42.594;23.414;2022-11-20T08:15:14;4.93;;;1.30;;
42704;SDS011;28342;42.594;23.414;2022-11-20T08:17:40;5.10;;;1.55;;
42704;SDS011;28342;42.594;23.414;2022-11-20T08:20:07;9.30;;;1.33;;
42704;SDS011;28342;42.594;23.414;2022-11-20T08:22:40;4.35;;;1.52;;
42704;SDS011;28342;42.594;23.414;2022-11-20T08:25:36;12.18;;;1.45;;
42704;SDS011;28342;42.594;23.414;2022-11-20T08:28:14;4.80;;;1.48;;
42704;SDS011;28342;42.594;23.414;2022-11-20T08:30:40;4.78;;;1.20;;
42704;SDS011;28342;42.594;23.414;2022-11-20T08:47:20;8.00;;;2.20;;
42704;SDS011;28342;42.594;23.414;2022-11-20T08:56:48;6.65;;;1.88;;
42704;SDS011;28342;42.594;23.414;2022-11-20T08:59:55;7.30;;;1.92;;
42704;SDS011;28342;42.594;23.414;2022-11-20T09:02:24;10.60;;;2.05;;
42704;SDS011;28342;42.594;23.414;2022-11-20T09:05:31;5.43;;;1.23;;
42704;SDS011;28342;42.594;23.414;2022-11-20T09:08:11;6.85;;;1.60;;
42704;SDS011;28342;42.594;23.414;2022-11-20T09:11:29;6.80;;;1.85;;
42704;SDS011;28342;42.594;23.414;2022-11-20T09:14:01;8.25;;;1.48;;
42704;SDS011;28342;42.594;23.414;2022-11-20T09:16:31;6.57;;;1.63;;
42704;SDS011;28342;42.594;23.414;2022-11-20T09:18:58;13.50;;;2.15;;
42704;SDS011;28342;42.594;23.414;2022-11-20T09:21:24;6.65;;;1.75;;
42704;SDS011;28342;42.594;23.414;2022-11-20T09:23:52;4.80;;;1.52;;
42704;SDS011;28342;42.594;23.414;2022-11-20T09:29:57;7.40;;;2.78;;
42704;SDS011;28342;42.594;23.414;2022-11-20T09:33:10;9.15;;;2.75;;
42704;SDS011;28342;42.594;23.414;2022-11-20T09:35:58;7.93;;;3.22;;
42704;SDS011;28342;42.594;23.414;2022-11-20T09:38:50;16.58;;;3.33;;
42704;SDS011;28342;42.594;23.414;2022-11-20T09:51:13;10.73;;;3.92;;
42704;SDS011;28342;42.594;23.414;2022-11-20T09:56:39;12.43;;;3.60;;
42704;SDS011;28342;42.594;23.414;2022-11-20T09:59:38;11.93;;;3.72;;
42704;SDS011;28342;42.594;23.414;2022-11-20T10:05:37;13.23;;;4.22;;
42704;SDS011;28342;42.594;23.414;2022-11-20T10:11:53;11.93;;;6.20;;
42704;SDS011;28342;42.594;23.414;2022-11-20T10:32:02;16.27;;;4.93;;
42704;SDS011;28342;42.594;23.414;2022-11-20T10:35:26;16.55;;;3.60;;
42704;SDS011;28342;42.594;23.414;2022-11-20T10:38:44;25.35;;;4.20;;
42704;SDS011;28342;42.594;23.414;2022-11-20T10:41:58;11.35;;;3.15;;
42704;SDS011;28342;42.594;23.414;2022-11-20T10:44:36;14.23;;;3.10;;
42704;SDS011;28342;42.594;23.414;2022-11-20T10:48:28;12.23;;;3.75;;
42704;SDS011;28342;42.594;23.414;2022-11-20T10:58:13;12.95;;;2.53;;
42704;SDS011;28342;42.594;23.414;2022-11-20T11:00:48;14.40;;;3.35;;
42704;SDS011;28342;42.594;23.414;2022-11-20T11:12:08;7.97;;;3.08;;
42704;SDS011;28342;42.594;23.414;2022-11-20T11:14:48;7.40;;;2.50;;
42704;SDS011;28342;42.594;23.414;2022-11-20T11:17:28;6.47;;;3.20;;
42704;SDS011;28342;42.594;23.414;2022-11-20T11:20:52;10.73;;;4.57;;
42704;SDS011;28342;42.594;23.414;2022-11-20T11:23:29;7.22;;;3.10;;
42704;SDS011;28342;42.594;23.414;2022-11-20T11:26:20;7.63;;;3.00;;
42704;SDS011;28342;42.594;23.414;2022-11-20T11:29:00;11.43;;;5.57;;
42704;SDS011;28342;42.594;23.414;2022-11-20T11:32:09;19.45;;;9.10;;
42704;SDS011;28342;42.594;23.414;2022-11-20T11:34:39;20.98;;;6.38;;
42704;SDS011;28342;42.594;23.414;2022-11-20T11:37:05;9.50;;;4.30;;
42704;SDS011;28342;42.594;23.414;2022-11-20T11:39:40;8.32;;;4.13;;
42704;SDS011;28342;42.594;23.414;2022-11-20T11:42:16;9.38;;;4.78;;
42704;SDS011;28342;42.594;23.414;2022-11-20T11:45:02;12.00;;;4.70;;
42704;SDS011;28342;42.594;23.414;2022-11-20T11:47:46;4.00;;;1.73;;
42704;SDS011;28342;42.594;23.414;2022-11-20T12:00:19;5.15;;;1.13;;
42704;SDS011;28342;42.594;23.414;2022-11-20T12:14:56;3.78;;;0.85;;
42704;SDS011;28342;42.594;23.414;2022-11-20T12:18:49;2.42;;;0.60;;
42704;SDS011;28342;42.594;23.414;2022-11-20T12:49:13;4.88;;;1.30;;
42704;SDS011;28342;42.594;23.414;2022-11-20T12:59:42;14.93;;;7.90;;
42704;SDS011;28342;42.594;23.414;2022-11-20T13:02:45;10.50;;;4.35;;
42704;SDS011;28342;42.594;23.414;2022-11-20T13:25:42;6.75;;;3.30;;
42704;SDS011;28342;42.594;23.414;2022-11-20T13:38:17;12.38;;;6.53;;
42704;SDS011;28342;42.594;23.414;2022-11-20T13:41:53;14.82;;;7.75;;
42704;SDS011;28342;42.594;23.414;2022-11-20T13:45:00;24.05;;;9.27;;
42704;SDS011;28342;42.594;23.414;2022-11-20T13:54:55;10.27;;;5.13;;
42704;SDS011;28342;42.594;23.414;2022-11-20T14:01:35;15.02;;;6.47;;
42704;SDS011;28342;42.594;23.414;2022-11-20T14:04:52;35.35;;;20.80;;
42704;SDS011;28342;42.594;23.414;2022-11-20T14:08:35;27.55;;;16.45;;
42704;SDS011;28342;42.594;23.414;2022-11-20T14:11:28;12.85;;;6.63;;
42704;SDS011;28342;42.594;23.414;2022-11-20T14:16:38;14.93;;;6.95;;
42704;SDS011;28342;42.594;23.414;2022-11-20T14:21:45;25.15;;;11.38;;
42704;SDS011;28342;42.594;23.414;2022-11-20T14:24:20;20.38;;;9.68;;
42704;SDS011;28342;42.594;23.414;2022-11-20T14:26:48;22.95;;;10.88;;
42704;SDS011;28342;42.594;23.414;2022-11-20T14:29:41;25.05;;;11.15;;
42704;SDS011;28342;42.594;23.414;2022-11-20T14:32:24;18.60;;;10.38;;
42704;SDS011;28342;42.594;23.414;2022-11-20T14:35:08;22.92;;;11.32;;
42704;SDS011;28342;42.594;23.414;2022-11-20T14:37:54;20.80;;;11.90;;
42704;SDS011;28342;42.594;23.414;2022-11-20T14:43:38;28.45;;;15.15;;
42704;SDS011;28342;42.594;23.414;2022-11-20T14:46:31;24.73;;;12.52;;
42704;SDS011;28342;42.594;23.414;2022-11-20T14:49:35;15.50;;;9.10;;
42704;SDS011;28342;42.594;23.414;2022-11-20T14:53:03;20.02;;;9.43;;
42704;SDS011;28342;42.594;23.414;2022-11-20T15:03:45;16.53;;;9.90;;
42704;SDS011;28342;42.594;23.414;2022-11-20T15:06:12;18.95;;;11.30;;
42704;SDS011;28342;42.594;23.414;2022-11-20T15:08:37;19.67;;;12.52;;
42704;SDS011;28342;42.594;23.414;2022-11-20T15:11:14;26.10;;;13.07;;
42704;SDS011;28342;42.594;23.414;2022-11-20T15:13:45;25.55;;;14.35;;
42704;SDS011;28342;42.594;23.414;2022-11-20T15:16:18;25.65;;;14.90;;
42704;SDS011;28342;42.594;23.414;2022-11-20T15:19:08;24.25;;;14.98;;
42704;SDS011;28342;42.594;23.414;2022-11-20T15:24:50;25.70;;;15.18;;
42704;SDS011;28342;42.594;23.414;2022-11-20T15:27:24;38.92;;;24.38;;
42704;SDS011;28342;42.594;23.414;2022-11-20T15:30:35;23.13;;;14.43;;
42704;SDS011;28342;42.594;23.414;2022-11-20T15:33:26;18.70;;;11.75;;
42704;SDS011;28342;42.594;23.414;2022-11-20T15:36:44;17.73;;;11.82;;
42704;SDS011;28342;42.594;23.414;2022-11-20T15:39:51;22.05;;;11.73;;
42704;SDS011;28342;42.594;23.414;2022-11-20T15:59:19;10.82;;;5.78;;
42704;SDS011;28342;42.594;23.414;2022-11-20T16:02:27;12.60;;;5.55;;
42704;SDS011;28342;42.594;23.414;2022-11-20T16:09:23;7.53;;;3.50;;
42704;SDS011;28342;42.594;23.414;2022-11-20T16:12:22;11.20;;;5.07;;
42704;SDS011;28342;42.594;23.414;2022-11-20T16:22:43;6.40;;;3.20;;
42704;SDS011;28342;42.594;23.414;2022-11-20T16:25:27;4.72;;;2.17;;
42704;SDS011;28342;42.594;23.414;2022-11-20T16:28:14;3.47;;;2.13;;
42704;SDS011;28342;42.594;23.414;2022-11-20T16:31:59;4.72;;;2.67;;
42704;SDS011;28342;42.594;23.414;2022-11-20T16:35:29;3.05;;;2.10;;
42704;SDS011;28342;42.594;23.414;2022-11-20T16:39:12;3.53;;;2.33;;
42704;SDS011;28342;42.594;23.414;2022-11-20T16:46:56;6.75;;;2.97;;
42704;SDS011;28342;42.594;23.414;2022-11-20T16:51:08;5.47;;;3.05;;
42704;SDS011;28342;42.594;23.414;2022-11-20T16:53:36;5.45;;;2.42;;
42704;SDS011;28342;42.594;23.414;2022-11-20T16:56:19;3.72;;;1.80;;
42704;SDS011;28342;42.594;23.414;2022-11-20T16:59:03;2.95;;;1.65;;
42704;SDS011;28342;42.594;23.414;2022-11-20T17:01:32;4.53;;;1.63;;
42704;SDS011;28342;42.594;23.414;2022-11-20T17:04:07;3.65;;;1.73;;
42704;SDS011;28342;42.594;23.414;2022-11-20T17:07:02;2.95;;;1.20;;
42704;SDS011;28342;42.594;23.414;2022-11-20T17:10:13;3.53;;;1.58;;
42704;SDS011;28342;42.594;23.414;2022-11-20T17:13:56;12.25;;;5.63;;
42704;SDS011;28342;42.594;23.414;2022-11-20T17:16:48;12.38;;;5.18;;
42704;SDS011;28342;42.594;23.414;2022-11-20T17:19:45;14.30;;;6.78;;
42704;SDS011;28342;42.594;23.414;2022-11-20T17:22:44;14.55;;;7.05;;
42704;SDS011;28342;42.594;23.414;2022-11-20T17:25:12;16.95;;;11.63;;
42704;SDS011;28342;42.594;23.414;2022-11-20T17:27:45;19.92;;;10.50;;
42704;SDS011;28342;42.594;23.414;2022-11-20T17:30:17;14.73;;;9.02;;
42704;SDS011;28342;42.594;23.414;2022-11-20T17:32:48;23.02;;;9.65;;
42704;SDS011;28342;42.594;23.414;2022-11-20T17:35:29;23.27;;;12.88;;
42704;SDS011;28342;42.594;23.414;2022-11-20T17:38:21;18.92;;;12.65;;
42704;SDS011;28342;42.594;23.414;2022-11-20T17:41:14;16.80;;;11.38;;
42704;SDS011;28342;42.594;23.414;2022-11-20T17:47:33;17.08;;;10.68;;
42704;SDS011;28342;42.594;23.414;2022-11-20T18:14:22;16.60;;;10.68;;
42704;SDS011;28342;42.594;23.414;2022-11-20T18:24:37;10.20;;;6.15;;
42704;SDS011;28342;42.594;23.414;2022-11-20T18:28:02;10.00;;;5.88;;
42704;SDS011;28342;42.594;23.414;2022-11-20T18:41:35;5.32;;;3.78;;
42704;SDS011;28342;42.594;23.414;2022-11-20T18:45:15;6.72;;;4.50;;
42704;SDS011;28342;42.594;23.414;2022-11-20T18:48:18;8.25;;;5.28;;
42704;SDS011;28342;42.594;23.414;2022-11-20T18:50:48;23.67;;;13.65;;
42704;SDS011;28342;42.594;23.414;2022-11-20T18:53:42;17.55;;;9.13;;
42704;SDS011;28342;42.594;23.414;2022-11-20T18:56:09;23.17;;;13.13;;
42704;SDS011;28342;42.594;23.414;2022-11-20T18:58:36;16.33;;;9.85;;
42704;SDS011;28342;42.594;23.414;2022-11-20T19:01:21;15.68;;;9.60;;
42704;SDS011;28342;42.594;23.414;2022-11-20T19:05:05;15.93;;;9.02;;
42704;SDS011;28342;42.594;23.414;2022-11-20T19:11:47;14.20;;;7.75;;
42704;SDS011;28342;42.594;23.414;2022-11-20T19:15:25;12.98;;;7.22;;
42704;SDS011;28342;42.594;23.414;2022-11-20T19:19:32;12.30;;;7.00;;
42704;SDS011;28342;42.594;23.414;2022-11-20T19:36:44;9.85;;;5.95;;
42704;SDS011;28342;42.594;23.414;2022-11-20T19:43:40;11.75;;;5.47;;
42704;SDS011;28342;42.594;23.414;2022-11-20T19:53:07;11.50;;;5.60;;
42704;SDS011;28342;42.594;23.414;2022-11-20T19:56:24;7.78;;;5.10;;
42704;SDS011;28342;42.594;23.414;2022-11-20T20:03:19;4.63;;;2.22;;
42704;SDS011;28342;42.594;23.414;2022-11-20T20:07:03;4.68;;;2.05;;
42704;SDS011;28342;42.594;23.414;2022-11-20T20:13:03;6.63;;;2.47;;
42704;SDS011;28342;42.594;23.414;2022-11-20T20:16:27;21.50;;;10.45;;
42704;SDS011;28342;42.594;23.414;2022-11-20T20:19:49;12.20;;;7.55;;
42704;SDS011;28342;42.594;23.414;2022-11-20T20:22:15;16.55;;;8.20;;
42704;SDS011;28342;42.594;23.414;2022-11-20T20:24:53;11.15;;;7.63;;
42704;SDS011;28342;42.594;23.414;2022-11-20T20:27:53;27.48;;;18.67;;
42704;SDS011;28342;42.594;23.414;2022-11-20T20:30:19;21.08;;;16.40;;
42704;SDS011;28342;42.594;23.414;2022-11-20T20:36:16;12.57;;;9.45;;
42704;SDS011;28342;42.594;23.414;2022-11-20T20:40:11;14.20;;;9.27;;
42704;SDS011;28342;42.594;23.414;2022-11-20T20:43:43;19.75;;;13.02;;
42704;SDS011;28342;42.594;23.414;2022-11-20T20:47:12;11.00;;;6.10;;
42704;SDS011;28342;42.594;23.414;2022-11-20T20:50:02;11.13;;;5.00;;
42704;SDS011;28342;42.594;23.414;2022-11-20T20:52:47;9.52;;;4.82;;
42704;SDS011;28342;42.594;23.414;2022-11-20T20:56:20;13.55;;;5.57;;
42704;SDS011;28342;42.594;23.414;2022-11-20T20:59:32;8.63;;;5.10;;
42704;SDS011;28342;42.594;23.414;2022-11-20T21:05:10;9.35;;;6.35;;
42704;SDS011;28342;42.594;23.414;2022-11-20T21:07:39;12.35;;;5.15;;
42704;SDS011;28342;42.594;23.414;2022-11-20T21:10:25;7.30;;;4.13;;
42704;SDS011;28342;42.594;23.414;2022-11-20T21:12:55;7.10;;;3.22;;
42704;SDS011;28342;42.594;23.414;2022-11-20T21:15:37;5.10;;;3.05;;
42704;SDS011;28342;42.594;23.414;2022-11-20T21:18:18;7.20;;;2.72;;
42704;SDS011;28342;42.594;23.414;2022-11-20T21:20:52;9.30;;;6.22;;
42704;SDS011;28342;42.594;23.414;2022-11-20T21:26:57;10.55;;;3.70;;
42704;SDS011;28342;42.594;23.414;2022-11-20T21:29:37;9.20;;;3.20;;
42704;SDS011;28342;42.594;23.414;2022-11-20T21:32:54;9.05;;;3.92;;
42704;SDS011;28342;42.594;23.414;2022-11-20T21:35:24;11.25;;;3.80;;
42704;SDS011;28342;42.594;23.414;2022-11-20T21:37:50;4.75;;;3.00;;
42704;SDS011;28342;42.594;23.414;2022-11-20T21:40:16;4.93;;;2.20;;
42704;SDS011;28342;42.594;23.414;2022-11-20T21:42:43;5.35;;;2.50;;
42704;SDS011;28342;42.594;23.414;2022-11-20T21:45:08;7.93;;;2.80;;
42704;SDS011;28342;42.594;23.414;2022-11-20T21:47:36;6.05;;;4.60;;
42704;SDS011;28342;42.594;23.414;2022-11-20T21:50:02;13.77;;;4.05;;
42704;SDS011;28342;42.594;23.414;2022-11-20T21:52:27;5.35;;;2.25;;
42704;SDS011;28342;42.594;23.414;2022-11-20T21:54:53;5.03;;;1.80;;
42704;SDS011;28342;42.594;23.414;2022-11-20T21:57:20;3.22;;;1.60;;
42704;SDS011;28342;42.594;23.414;2022-11-20T21:59:46;2.88;;;1.60;;
42704;SDS011;28342;42.594;23.414;2022-11-20T22:02:12;3.35;;;1.70;;